Time;durP1;ratioP1;P1;durP2;ratioP2;P2;SDS_P1;SDS_P2;PMS_P1;PMS_P2;Temp;Humidity;BMP_temperature;BMP_pressure;BME280_temperature;BME280_humidity;BME280_pressure;Samples;Min_cycle;Max_cycle;Signal;HPM_P1;HPM_P2
2022/04/09 00:02:07;;;;;;;0.93;0.93;;;2.80;99.90;;;;;;4963427;28;20023;-88
2022/04/09 00:04:33;;;;;;;0.70;0.70;;;2.70;99.90;;;;;;4967267;28;20027;-86
2022/04/09 00:06:58;;;;;;;0.80;0.80;;;2.80;99.90;;;;;;4980967;28;21587;-86
2022/04/09 00:09:25;;;;;;;0.75;0.75;;;2.80;99.90;;;;;;4990736;28;20039;-85
2022/04/09 00:11:51;;;;;;;0.80;0.80;;;2.80;99.90;;;;;;4971639;28;20098;-87
2022/04/09 00:14:16;;;;;;;1.00;1.00;;;2.90;99.90;;;;;;4972008;28;20027;-86
2022/04/09 00:16:42;;;;;;;1.00;1.00;;;2.90;99.90;;;;;;4973760;28;20023;-87
2022/04/09 00:19:07;;;;;;;1.23;1.13;;;2.90;99.90;;;;;;4973750;28;20023;-86
2022/04/09 00:21:34;;;;;;;1.50;1.40;;;2.90;99.90;;;;;;4984686;28;20075;-85
2022/04/09 00:24:00;;;;;;;1.40;1.30;;;2.90;99.90;;;;;;4972849;28;20050;-86
2022/04/09 00:26:25;;;;;;;1.25;1.17;;;2.90;99.90;;;;;;4961280;29;20114;-86
2022/04/09 00:28:51;;;;;;;1.45;1.35;;;2.90;99.90;;;;;;4969845;28;20320;-87
2022/04/09 00:31:17;;;;;;;1.50;1.40;;;2.90;99.90;;;;;;4981290;28;20026;-86
2022/04/09 00:33:42;;;;;;;1.33;1.23;;;2.90;99.90;;;;;;4955539;29;20024;-86
2022/04/09 00:36:08;;;;;;;1.73;1.10;;;2.80;99.90;;;;;;4944734;28;20035;-87
2022/04/09 00:38:33;;;;;;;1.33;1.25;;;2.80;99.90;;;;;;4978989;28;20050;-88
2022/04/09 00:40:59;;;;;;;2.20;1.40;;;2.80;99.90;;;;;;4980210;28;20026;-86
2022/04/09 00:43:24;;;;;;;1.20;1.10;;;2.80;99.90;;;;;;4962780;28;20454;-88
2022/04/09 00:45:50;;;;;;;1.30;1.20;;;2.80;99.90;;;;;;4961637;28;20030;-86
2022/04/09 00:48:21;;;;;;;0.85;0.85;;;2.70;99.90;;;;;;4980199;28;20041;-86
2022/04/09 00:50:47;;;;;;;0.65;0.65;;;2.80;99.90;;;;;;4979772;28;20023;-86
2022/04/09 00:53:15;;;;;;;0.70;0.70;;;2.70;99.90;;;;;;4967993;28;20086;-86
2022/04/09 00:58:28;;;;;;;0.50;0.50;;;2.80;99.90;;;;;;4991313;28;20034;-87
2022/04/09 01:00:53;;;;;;;0.65;0.65;;;2.80;99.90;;;;;;4984385;28;20051;-86
2022/04/09 01:03:20;;;;;;;0.60;0.60;;;2.80;99.90;;;;;;4966555;28;20041;-85
2022/04/09 01:05:48;;;;;;;0.70;0.70;;;2.90;99.90;;;;;;4968043;29;20118;-85
2022/04/09 01:08:14;;;;;;;0.70;0.70;;;2.90;99.90;;;;;;4964735;28;20026;-86
2022/04/09 01:10:40;;;;;;;0.70;0.70;;;2.90;99.90;;;;;;4987031;28;20023;-86
2022/04/09 01:13:06;;;;;;;1.75;0.80;;;2.90;99.90;;;;;;4965392;28;20481;-86
2022/04/09 01:15:32;;;;;;;0.70;0.70;;;3.00;99.90;;;;;;4977940;28;20182;-86
2022/04/09 01:18:00;;;;;;;0.60;0.60;;;3.00;99.90;;;;;;4963014;28;20106;-86
2022/04/09 01:20:26;;;;;;;0.70;0.70;;;3.00;99.90;;;;;;4980444;28;20023;-86
2022/04/09 01:22:52;;;;;;;0.70;0.70;;;3.00;99.90;;;;;;4955404;28;20030;-86
2022/04/09 01:25:18;;;;;;;0.90;0.90;;;3.00;99.90;;;;;;4950203;28;20095;-86
2022/04/09 01:27:46;;;;;;;1.10;1.00;;;3.10;99.90;;;;;;4963496;28;20030;-86
2022/04/09 01:30:12;;;;;;;1.17;1.08;;;3.10;99.90;;;;;;4981703;28;20027;-86
2022/04/09 01:32:38;;;;;;;1.52;1.30;;;3.10;99.90;;;;;;4986617;28;20091;-86
2022/04/09 01:35:04;;;;;;;2.38;1.30;;;3.20;99.90;;;;;;4993505;28;20039;-87
2022/04/09 01:37:31;;;;;;;1.45;1.33;;;3.10;99.90;;;;;;4975812;28;20167;-86
2022/04/09 01:39:57;;;;;;;1.90;1.60;;;3.10;99.90;;;;;;4981711;28;20023;-86
2022/04/09 01:42:24;;;;;;;2.38;1.60;;;3.10;99.90;;;;;;4998504;28;20104;-86
2022/04/09 01:44:50;;;;;;;3.53;2.10;;;3.10;99.90;;;;;;4992229;28;20015;-86
2022/04/09 01:47:16;;;;;;;2.67;2.08;;;3.10;99.90;;;;;;4996114;28;20030;-86
2022/04/09 01:52:22;;;;;;;4.90;2.80;;;3.00;99.90;;;;;;4929347;29;20074;-87
2022/04/09 01:54:50;;;;;;;5.38;2.90;;;3.00;99.90;;;;;;4933211;28;20039;-87
2022/04/09 01:57:25;;;;;;;6.90;3.03;;;3.10;99.90;;;;;;4955686;28;20035;-88
2022/04/09 02:00:12;;;;;;;5.15;3.05;;;3.10;99.90;;;;;;4956083;28;20390;-88
2022/04/09 02:02:41;;;;;;;5.47;2.75;;;3.10;99.90;;;;;;4954958;28;20102;-87
2022/04/09 02:05:19;;;;;;;6.18;2.88;;;3.10;99.90;;;;;;4948909;29;20040;-87
2022/04/09 02:08:39;;;;;;;;;;;;;;;;;;;;;
2022/04/09 02:11:14;;;;;;;4.30;2.90;;;3.20;99.90;;;;;;4959549;28;20061;-88
2022/04/09 02:13:57;;;;;;;5.40;2.88;;;3.20;99.90;;;;;;4961230;28;20026;-88
2022/04/09 02:16:27;;;;;;;7.93;3.10;;;3.20;99.90;;;;;;4954809;28;20034;-88
2022/04/09 02:18:56;;;;;;;6.20;3.33;;;3.20;99.90;;;;;;4962379;28;20023;-87
2022/04/09 02:21:22;;;;;;;7.53;3.20;;;3.10;99.90;;;;;;4959283;28;20019;-87
2022/04/09 02:23:47;;;;;;;7.63;2.90;;;3.10;99.90;;;;;;4939708;28;20057;-87
2022/04/09 02:26:13;;;;;;;7.30;3.10;;;3.10;99.90;;;;;;4943589;28;20067;-87
2022/04/09 02:28:42;;;;;;;6.25;3.15;;;3.10;99.90;;;;;;4933137;29;20073;-88
2022/04/09 02:31:07;;;;;;;6.88;3.15;;;3.10;99.90;;;;;;4959666;28;20039;-88
2022/04/09 02:33:33;;;;;;;5.97;3.50;;;3.10;99.90;;;;;;4918772;29;20090;-88
2022/04/09 02:35:59;;;;;;;7.50;3.45;;;3.10;99.90;;;;;;4929181;29;20484;-87
2022/04/09 02:38:25;;;;;;;9.98;3.78;;;3.10;99.90;;;;;;4939205;28;20027;-88
2022/04/09 02:40:51;;;;;;;10.77;3.53;;;3.00;99.90;;;;;;4949998;28;20020;-87
2022/04/09 02:43:16;;;;;;;9.27;3.85;;;3.00;99.90;;;;;;4938550;29;20479;-87
2022/04/09 02:45:42;;;;;;;8.98;4.25;;;3.00;99.90;;;;;;4932451;29;20026;-87
2022/04/09 02:48:08;;;;;;;10.57;4.10;;;3.00;99.90;;;;;;4936269;28;21660;-87
2022/04/09 02:50:34;;;;;;;11.00;4.22;;;3.00;99.90;;;;;;4941975;29;20035;-88
2022/04/09 02:53:00;;;;;;;9.63;4.60;;;3.10;99.90;;;;;;4945363;28;20032;-88
2022/04/09 02:55:25;;;;;;;9.77;4.43;;;3.10;99.90;;;;;;4934789;29;20049;-87
2022/04/09 02:57:54;;;;;;;12.25;4.90;;;3.00;99.90;;;;;;4953471;28;20057;-87
2022/04/09 03:00:22;;;;;;;12.48;5.05;;;3.00;99.90;;;;;;4959460;28;20110;-87
2022/04/09 03:02:48;;;;;;;11.48;5.22;;;3.10;99.90;;;;;;4936406;28;20102;-87
2022/04/09 03:05:14;;;;;;;14.18;6.30;;;3.10;99.90;;;;;;4941226;29;20127;-88
2022/04/09 03:07:42;;;;;;;17.77;6.57;;;3.10;99.90;;;;;;4937986;28;20026;-87
2022/04/09 03:10:08;;;;;;;23.30;7.40;;;3.10;99.90;;;;;;4937418;28;20061;-87
2022/04/09 03:12:36;;;;;;;21.83;8.23;;;3.10;99.90;;;;;;4942895;28;20534;-86
2022/04/09 03:15:02;;;;;;;35.40;9.60;;;3.10;99.90;;;;;;4960376;28;20047;-88
2022/04/09 03:17:28;;;;;;;27.80;9.98;;;3.10;99.90;;;;;;4938491;29;20032;-88
2022/04/09 03:19:54;;;;;;;31.83;9.60;;;3.10;99.90;;;;;;4934702;28;20433;-88
2022/04/09 03:22:21;;;;;;;31.27;9.90;;;3.10;99.90;;;;;;4963838;28;20026;-87
2022/04/09 03:24:47;;;;;;;39.38;10.52;;;3.10;99.90;;;;;;4936873;28;20399;-86
2022/04/09 03:27:13;;;;;;;40.15;11.55;;;3.00;99.90;;;;;;4943555;29;20035;-87
2022/04/09 03:29:39;;;;;;;42.70;11.90;;;3.00;99.90;;;;;;4929719;29;20027;-87
2022/04/09 03:32:05;;;;;;;38.40;12.15;;;3.00;99.90;;;;;;4935817;28;20488;-87
2022/04/09 03:34:30;;;;;;;42.50;11.70;;;3.00;99.90;;;;;;4943764;29;20034;-86
2022/04/09 03:36:57;;;;;;;40.17;11.95;;;3.00;99.90;;;;;;4918343;29;20492;-87
2022/04/09 03:39:22;;;;;;;42.00;12.60;;;2.90;99.90;;;;;;4952593;28;20432;-87
2022/04/09 03:41:48;;;;;;;45.85;12.32;;;2.90;99.90;;;;;;4935263;28;20061;-86
2022/04/09 03:44:13;;;;;;;47.15;13.20;;;2.90;99.90;;;;;;4951592;28;20038;-86
2022/04/09 03:46:39;;;;;;;49.60;14.02;;;2.80;99.90;;;;;;4945625;28;20028;-87
2022/04/09 03:49:05;;;;;;;48.42;13.55;;;2.80;99.90;;;;;;4935642;28;20263;-88
2022/04/09 03:51:30;;;;;;;51.33;14.45;;;2.80;99.90;;;;;;4940197;28;20042;-87
2022/04/09 03:53:56;;;;;;;50.08;14.05;;;2.80;99.90;;;;;;4931810;28;20024;-87
2022/04/09 03:56:22;;;;;;;55.78;16.02;;;2.80;99.90;;;;;;4958341;28;20093;-87
2022/04/09 03:58:49;;;;;;;60.47;15.35;;;2.80;99.90;;;;;;4956392;28;20030;-87
2022/04/09 04:01:14;;;;;;;60.20;17.05;;;2.80;99.90;;;;;;4937507;28;20122;-90
2022/04/09 04:03:40;;;;;;;54.88;15.75;;;2.80;99.90;;;;;;4956621;29;20111;-87
2022/04/09 04:06:06;;;;;;;58.10;16.63;;;2.80;99.90;;;;;;4959509;28;20047;-87
2022/04/09 04:08:31;;;;;;;53.38;15.52;;;2.80;99.90;;;;;;4969549;28;20080;-86
2022/04/09 04:10:57;;;;;;;52.42;16.17;;;2.80;99.90;;;;;;4958720;28;20027;-87
2022/04/09 04:13:22;;;;;;;64.90;17.23;;;2.80;99.90;;;;;;4941072;28;20046;-88
2022/04/09 04:15:48;;;;;;;59.20;16.40;;;2.80;99.90;;;;;;4966556;28;20015;-88
2022/04/09 04:18:14;;;;;;;53.53;15.25;;;2.90;99.90;;;;;;4963457;29;20099;-87
2022/04/09 04:20:39;;;;;;;58.65;16.42;;;2.90;99.90;;;;;;4977794;28;20027;-87
2022/04/09 04:23:08;;;;;;;60.97;17.85;;;2.90;99.90;;;;;;4977908;28;20035;-87
2022/04/09 04:25:34;;;;;;;58.67;16.80;;;2.90;99.90;;;;;;4948280;28;20027;-87
2022/04/09 04:27:59;;;;;;;60.20;17.30;;;2.90;99.90;;;;;;4936097;29;20404;-88
2022/04/09 04:30:25;;;;;;;64.13;17.70;;;2.90;99.90;;;;;;4937409;28;20506;-87
2022/04/09 04:32:50;;;;;;;61.78;17.30;;;2.90;99.90;;;;;;4934519;29;20028;-88
2022/04/09 04:35:16;;;;;;;59.13;17.00;;;2.90;99.90;;;;;;4938213;28;20084;-88
2022/04/09 04:37:44;;;;;;;54.85;17.30;;;3.00;99.90;;;;;;4945666;28;20162;-88
2022/04/09 04:40:10;;;;;;;54.75;16.45;;;3.00;99.90;;;;;;4947802;28;20027;-88
2022/04/09 04:42:36;;;;;;;60.42;15.85;;;3.00;99.90;;;;;;4936542;28;20038;-87
2022/04/09 04:45:03;;;;;;;51.35;15.95;;;3.00;99.90;;;;;;4929914;28;20118;-88
2022/04/09 04:47:29;;;;;;;53.85;16.02;;;3.00;99.90;;;;;;4955723;28;20042;-87
2022/04/09 04:49:55;;;;;;;54.28;16.55;;;3.00;99.90;;;;;;4939037;29;20039;-87
2022/04/09 04:52:20;;;;;;;55.05;16.45;;;3.00;99.90;;;;;;4940848;28;20074;-88
2022/04/09 04:54:46;;;;;;;50.05;17.25;;;3.00;99.90;;;;;;4937457;29;20032;-88
2022/04/09 04:57:11;;;;;;;51.47;16.35;;;3.00;99.90;;;;;;4959057;28;20479;-88
2022/04/09 04:59:38;;;;;;;52.33;16.77;;;3.00;99.90;;;;;;4941262;29;20471;-88
2022/04/09 05:02:04;;;;;;;48.45;16.98;;;3.10;99.90;;;;;;4942222;28;20035;-88
2022/04/09 05:04:29;;;;;;;51.28;17.13;;;3.10;99.90;;;;;;4943051;29;20105;-88
2022/04/09 05:06:55;;;;;;;50.67;17.40;;;3.10;99.90;;;;;;4958122;28;20103;-88
2022/04/09 05:09:21;;;;;;;53.50;16.42;;;3.10;99.90;;;;;;4963997;28;20031;-87
2022/04/09 05:11:47;;;;;;;56.33;17.15;;;3.10;99.90;;;;;;4955957;28;20527;-87
2022/04/09 05:14:13;;;;;;;50.85;17.10;;;3.10;99.90;;;;;;4944784;29;20492;-86
2022/04/09 05:16:38;;;;;;;50.92;16.30;;;3.10;99.90;;;;;;4940310;29;20496;-87
2022/04/09 05:19:05;;;;;;;58.80;17.23;;;3.10;99.90;;;;;;4938378;28;20101;-87
2022/04/09 05:21:30;;;;;;;49.97;16.35;;;3.10;99.90;;;;;;4935757;28;20110;-87
2022/04/09 05:23:56;;;;;;;53.65;17.20;;;3.00;99.90;;;;;;4947514;28;20070;-86
2022/04/09 05:26:21;;;;;;;53.50;17.17;;;3.00;99.90;;;;;;4936192;29;20034;-88
2022/04/09 05:28:53;;;;;;;52.65;17.42;;;3.00;99.90;;;;;;4940774;29;20035;-86
2022/04/09 05:31:20;;;;;;;54.83;17.60;;;3.00;99.90;;;;;;4949126;28;20027;-87
2022/04/09 05:33:46;;;;;;;54.88;17.65;;;3.10;99.90;;;;;;4936836;29;20027;-88
2022/04/09 05:36:11;;;;;;;53.58;17.70;;;3.10;99.90;;;;;;4957077;28;20376;-87
2022/04/09 05:38:37;;;;;;;55.15;17.10;;;3.10;99.90;;;;;;4960366;28;20047;-87
2022/04/09 05:41:02;;;;;;;52.95;17.45;;;3.10;99.90;;;;;;4944420;28;20039;-88
2022/04/09 05:43:29;;;;;;;55.05;17.15;;;3.10;99.90;;;;;;4957087;28;20098;-87
2022/04/09 05:45:55;;;;;;;64.95;18.08;;;3.10;99.90;;;;;;4952941;28;20054;-86
2022/04/09 05:48:21;;;;;;;58.80;17.55;;;3.10;99.90;;;;;;4973636;28;20057;-88
2022/04/09 05:50:47;;;;;;;53.55;17.48;;;3.10;99.90;;;;;;4929899;29;20059;-88
2022/04/09 05:53:13;;;;;;;53.25;16.70;;;3.10;99.90;;;;;;4933252;28;20031;-87
2022/04/09 05:55:38;;;;;;;44.65;16.02;;;3.10;99.90;;;;;;4939056;29;20027;-88
2022/04/09 05:58:04;;;;;;;48.13;16.75;;;3.10;99.90;;;;;;4947320;28;20023;-88
2022/04/09 06:00:32;;;;;;;49.50;18.20;;;3.10;99.90;;;;;;4951975;28;20031;-87
2022/04/09 06:02:58;;;;;;;43.13;15.63;;;3.20;99.90;;;;;;4933916;29;20031;-87
2022/04/09 06:05:24;;;;;;;32.88;13.63;;;3.20;99.90;;;;;;4943592;28;20037;-86
2022/04/09 06:07:54;;;;;;;45.13;14.63;;;3.20;99.90;;;;;;4938099;28;20031;-87
2022/04/09 06:10:20;;;;;;;31.40;13.48;;;3.30;99.90;;;;;;4954597;28;20030;-86
2022/04/09 06:12:46;;;;;;;37.90;13.88;;;3.30;99.90;;;;;;4929765;29;20489;-86
2022/04/09 06:15:11;;;;;;;35.25;13.18;;;3.30;99.90;;;;;;4954314;28;20408;-86
2022/04/09 06:17:39;;;;;;;35.28;13.52;;;3.30;99.90;;;;;;4950712;28;20020;-86
2022/04/09 06:20:06;;;;;;;38.90;12.82;;;3.20;99.90;;;;;;4959449;28;20031;-87
2022/04/09 06:22:32;;;;;;;32.33;13.38;;;3.30;99.90;;;;;;4964236;28;20043;-87
2022/04/09 06:24:58;;;;;;;34.13;13.35;;;3.30;99.90;;;;;;4935718;28;20043;-86
2022/04/09 06:27:24;;;;;;;36.08;13.50;;;3.30;99.90;;;;;;4939102;29;20035;-86
2022/04/09 06:29:49;;;;;;;30.73;12.82;;;3.30;99.90;;;;;;4945509;28;20033;-87
2022/04/09 06:32:15;;;;;;;26.27;11.68;;;3.30;99.90;;;;;;4961344;28;20027;-87
2022/04/09 06:34:41;;;;;;;26.60;11.50;;;3.30;99.90;;;;;;4939938;28;20042;-87
2022/04/09 06:37:06;;;;;;;33.30;11.88;;;3.30;99.90;;;;;;4943594;29;20031;-87
2022/04/09 06:39:32;;;;;;;26.70;11.63;;;3.30;99.90;;;;;;4953161;28;20383;-87
2022/04/09 06:41:58;;;;;;;30.15;10.25;;;3.40;99.90;;;;;;4947316;28;20070;-86
2022/04/09 06:44:25;;;;;;;23.27;10.50;;;3.40;99.90;;;;;;4933797;29;20035;-87
2022/04/09 06:46:51;;;;;;;18.52;9.55;;;3.40;99.90;;;;;;4939051;28;20042;-87
2022/04/09 06:49:17;;;;;;;22.23;9.65;;;3.40;99.90;;;;;;4947096;29;20510;-88
2022/04/09 06:51:44;;;;;;;17.42;9.85;;;3.40;99.90;;;;;;4946611;29;20036;-88
2022/04/09 06:54:10;;;;;;;19.40;9.77;;;3.40;99.90;;;;;;4934354;29;20479;-86
2022/04/09 06:56:38;;;;;;;21.67;10.10;;;3.40;99.90;;;;;;4949362;29;20032;-86
2022/04/09 06:59:04;;;;;;;17.10;9.30;;;3.40;99.90;;;;;;4954171;28;20098;-87
2022/04/09 07:01:30;;;;;;;17.17;9.40;;;3.40;99.90;;;;;;4929871;29;20023;-87
2022/04/09 07:03:56;;;;;;;21.77;9.77;;;3.50;99.90;;;;;;4938201;29;20031;-87
2022/04/09 07:06:22;;;;;;;20.83;9.13;;;3.50;99.90;;;;;;4961569;28;20027;-89
2022/04/09 07:08:48;;;;;;;20.42;9.02;;;3.60;99.90;;;;;;4938488;28;20031;-88
2022/04/09 07:11:16;;;;;;;12.82;7.90;;;3.60;99.90;;;;;;4963073;28;20031;-88
2022/04/09 07:13:42;;;;;;;16.02;8.13;;;3.80;99.90;;;;;;4933002;28;20063;-87
2022/04/09 07:16:07;;;;;;;9.43;7.10;;;3.90;99.90;;;;;;4929568;28;20065;-87
2022/04/09 07:18:33;;;;;;;11.93;7.75;;;3.90;99.90;;;;;;4936126;29;20019;-87
2022/04/09 07:20:59;;;;;;;13.07;7.28;;;4.00;99.90;;;;;;4931382;29;20035;-87
2022/04/09 07:23:25;;;;;;;8.60;5.80;;;4.30;99.90;;;;;;4924767;29;20075;-88
2022/04/09 07:25:50;;;;;;;9.27;6.40;;;4.50;99.90;;;;;;4965813;28;20110;-88
2022/04/09 07:28:16;;;;;;;9.20;5.13;;;4.60;99.90;;;;;;4950128;28;20117;-89
2022/04/09 07:30:43;;;;;;;8.55;5.13;;;4.80;99.90;;;;;;4945708;28;20046;-87
2022/04/09 07:33:09;;;;;;;7.20;5.63;;;4.90;99.90;;;;;;4924333;29;20027;-88
2022/04/09 07:35:35;;;;;;;8.82;5.10;;;4.90;99.90;;;;;;4930908;29;20032;-88
2022/04/09 07:38:02;;;;;;;7.97;5.20;;;5.00;99.90;;;;;;4929373;29;20082;-87
2022/04/09 07:40:28;;;;;;;7.47;5.38;;;4.90;99.90;;;;;;4947584;29;20747;-87
2022/04/09 07:42:54;;;;;;;11.88;6.22;;;4.90;99.90;;;;;;4927992;29;20174;-87
2022/04/09 07:45:21;;;;;;;13.18;5.82;;;4.90;99.90;;;;;;4936307;29;20050;-88
2022/04/09 07:47:51;;;;;;;9.77;5.80;;;4.90;99.90;;;;;;4937063;29;20038;-88
2022/04/09 07:50:16;;;;;;;6.78;5.50;;;4.90;99.90;;;;;;4948424;23;20059;-85
2022/04/09 07:52:43;;;;;;;7.45;4.90;;;4.80;99.90;;;;;;4942423;29;20047;-87
2022/04/09 07:55:11;;;;;;;12.93;6.15;;;4.90;99.90;;;;;;4950871;29;20104;-89
2022/04/09 07:57:37;;;;;;;11.52;5.47;;;4.90;99.90;;;;;;4942934;29;20078;-86
2022/04/09 08:00:03;;;;;;;7.35;5.35;;;4.90;99.90;;;;;;4963630;28;20031;-86
2022/04/09 08:02:29;;;;;;;9.43;5.90;;;5.00;99.90;;;;;;4978154;28;20039;-87
2022/04/09 08:04:55;;;;;;;10.43;5.43;;;5.10;99.90;;;;;;4969870;28;20481;-87
2022/04/09 08:07:20;;;;;;;10.05;5.22;;;5.30;99.90;;;;;;4942551;29;20031;-85
2022/04/09 08:09:46;;;;;;;10.63;5.10;;;5.60;99.90;;;;;;4958750;28;20023;-86
2022/04/09 08:12:12;;;;;;;9.82;4.78;;;5.70;99.90;;;;;;4957628;29;20038;-85
2022/04/09 08:14:39;;;;;;;7.38;4.82;;;5.80;99.90;;;;;;4941403;29;20031;-87
2022/04/09 08:17:09;;;;;;;10.52;4.75;;;6.20;99.90;;;;;;4941483;29;20024;-86
2022/04/09 08:19:44;;;;;;;9.20;4.60;;;6.10;99.90;;;;;;4963058;28;20508;-89
2022/04/09 08:22:10;;;;;;;8.38;5.20;;;6.10;99.90;;;;;;4964068;28;20520;-88
2022/04/09 08:24:35;;;;;;;9.50;4.95;;;6.30;99.90;;;;;;4962716;28;20031;-86
2022/04/09 08:27:01;;;;;;;7.30;4.70;;;6.30;99.90;;;;;;4978450;28;20109;-88
2022/04/09 08:29:27;;;;;;;10.98;5.25;;;6.40;99.90;;;;;;4964875;28;20121;-87
2022/04/09 08:31:52;;;;;;;7.03;4.20;;;6.60;99.90;;;;;;4979393;28;20045;-84
2022/04/09 08:34:19;;;;;;;7.43;4.38;;;7.20;99.90;;;;;;4962557;28;20477;-86
2022/04/09 08:36:45;;;;;;;7.28;4.50;;;7.40;99.90;;;;;;4962699;28;20069;-86
2022/04/09 08:39:12;;;;;;;10.95;4.13;;;7.20;99.90;;;;;;4973558;28;20397;-86
2022/04/09 08:41:40;;;;;;;7.40;4.50;;;7.00;99.90;;;;;;4983182;28;20022;-85
2022/04/09 08:44:07;;;;;;;7.15;4.43;;;7.00;99.90;;;;;;4960007;28;20031;-85
2022/04/09 08:46:34;;;;;;;8.88;4.70;;;7.40;99.90;;;;;;4974347;28;20101;-86
2022/04/09 08:49:04;;;;;;;7.80;4.15;;;7.40;99.90;;;;;;4963346;28;20039;-86
2022/04/09 08:51:30;;;;;;;7.55;4.63;;;7.10;99.90;;;;;;4965913;28;20033;-87
2022/04/09 08:53:57;;;;;;;9.70;5.10;;;6.90;99.90;;;;;;4978611;28;20027;-87
2022/04/09 08:56:22;;;;;;;7.32;4.47;;;6.80;99.90;;;;;;4957108;29;20037;-86
2022/04/09 08:58:48;;;;;;;11.60;4.95;;;6.70;99.90;;;;;;4959356;28;20031;-86
2022/04/09 09:01:14;;;;;;;4.80;3.90;;;6.60;99.90;;;;;;4960379;28;20019;-84
2022/04/09 09:03:40;;;;;;;8.60;4.47;;;6.40;99.90;;;;;;4948202;28;20094;-85
2022/04/09 09:06:35;;;;;;;7.43;4.63;;;6.30;99.90;;;;;;4960761;28;20519;-86
2022/04/09 09:09:05;;;;;;;10.13;4.95;;;6.20;99.90;;;;;;4959431;28;20073;-85
2022/04/09 09:11:45;;;;;;;9.00;4.50;;;6.10;99.90;;;;;;4964895;28;20014;-86
2022/04/09 09:14:11;;;;;;;7.63;4.53;;;6.10;99.90;;;;;;4953865;28;20034;-85
2022/04/09 09:16:37;;;;;;;12.77;4.93;;;6.10;99.90;;;;;;4973199;28;20027;-85
2022/04/09 09:19:07;;;;;;;11.93;5.18;;;6.10;99.90;;;;;;4960077;28;20035;-86
2022/04/09 09:21:33;;;;;;;9.85;4.88;;;6.20;99.90;;;;;;4960029;28;20125;-87
2022/04/09 09:24:11;;;;;;;11.07;5.28;;;6.30;99.90;;;;;;4948877;29;20051;-86
2022/04/09 09:26:40;;;;;;;9.10;4.30;;;6.50;99.90;;;;;;4947717;28;20022;-85
2022/04/09 09:29:08;;;;;;;8.93;3.80;;;6.70;99.90;;;;;;4946974;29;20039;-85
2022/04/09 09:31:44;;;;;;;5.68;4.28;;;6.80;99.90;;;;;;4953145;28;20022;-85
2022/04/09 09:34:12;;;;;;;9.77;4.32;;;6.80;99.90;;;;;;4948040;29;20027;-86
2022/04/09 09:36:40;;;;;;;10.63;3.90;;;7.70;99.90;;;;;;4954630;28;20034;-86
2022/04/09 09:39:07;;;;;;;8.73;4.05;;;8.10;99.90;;;;;;4959127;28;20105;-87
2022/04/09 09:41:33;;;;;;;10.18;3.58;;;8.60;99.90;;;;;;4959122;28;20030;-86
2022/04/09 09:44:06;;;;;;;8.10;4.15;;;8.90;99.90;;;;;;4958220;28;20031;-86
2022/04/09 09:46:32;;;;;;;7.82;3.72;;;9.60;99.90;;;;;;4971473;28;20011;-86
2022/04/09 09:48:58;;;;;;;5.47;3.50;;;9.90;99.90;;;;;;4963636;28;20042;-86
2022/04/09 09:51:24;;;;;;;8.98;3.60;;;10.80;99.90;;;;;;4953206;29;20104;-87
2022/04/09 09:54:02;;;;;;;8.73;3.38;;;11.40;99.90;;;;;;4955644;28;20026;-87
2022/04/09 09:56:39;;;;;;;6.63;2.67;;;11.70;99.90;;;;;;4965218;28;20027;-87
2022/04/09 09:59:06;;;;;;;7.72;2.80;;;11.50;99.90;;;;;;4975020;28;20102;-87
2022/04/09 10:01:37;;;;;;;8.50;2.80;;;11.00;99.90;;;;;;4956070;28;20204;-86
2022/04/09 10:04:04;;;;;;;7.57;3.20;;;10.60;99.90;;;;;;4957394;28;20496;-86
2022/04/09 10:06:31;;;;;;;6.28;3.33;;;10.30;99.90;;;;;;4959136;28;20507;-86
2022/04/09 10:08:58;;;;;;;5.65;3.22;;;9.90;99.90;;;;;;4977019;28;20027;-86
2022/04/09 10:11:25;;;;;;;5.80;2.67;;;9.80;99.90;;;;;;4976474;28;20031;-86
2022/04/09 10:13:54;;;;;;;9.38;3.53;;;9.60;99.90;;;;;;4955200;29;20054;-86
2022/04/09 10:16:22;;;;;;;6.57;3.42;;;9.50;99.90;;;;;;4958959;28;20031;-86
2022/04/09 10:18:49;;;;;;;5.07;3.10;;;9.20;99.90;;;;;;4983072;28;20023;-86
2022/04/09 10:21:16;;;;;;;10.80;3.20;;;8.90;99.90;;;;;;4973895;28;20057;-86
2022/04/09 10:24:03;;;;;;;10.40;3.00;;;8.70;99.90;;;;;;4958763;28;20037;-87
2022/04/09 10:26:30;;;;;;;9.43;2.45;;;8.50;99.90;;;;;;4952302;28;20468;-86
2022/04/09 10:29:14;;;;;;;7.63;2.33;;;8.40;99.90;;;;;;4958357;28;20038;-86
2022/04/09 10:31:41;;;;;;;5.80;2.50;;;8.20;99.90;;;;;;4948417;28;20031;-87
2022/04/09 10:34:16;;;;;;;7.53;2.85;;;8.10;99.90;;;;;;4957228;28;20030;-86
2022/04/09 10:36:44;;;;;;;9.68;3.28;;;8.10;99.90;;;;;;4941218;28;20031;-86
2022/04/09 10:39:39;;;;;;;4.97;2.63;;;8.00;99.90;;;;;;4976606;28;20043;-86
2022/04/09 10:42:05;;;;;;;7.30;2.63;;;8.50;99.90;;;;;;4961779;28;20026;-86
2022/04/09 10:44:43;;;;;;;5.47;2.50;;;9.40;99.90;;;;;;4958022;28;20027;-86
2022/04/09 10:47:11;;;;;;;8.65;3.08;;;9.40;99.90;;;;;;4974918;28;20054;-86
2022/04/09 10:49:37;;;;;;;5.65;2.65;;;9.50;99.90;;;;;;4958118;28;20038;-86
2022/04/09 10:52:08;;;;;;;6.75;2.42;;;9.80;99.90;;;;;;4957690;28;20074;-87
2022/04/09 10:54:34;;;;;;;3.63;1.95;;;9.60;99.90;;;;;;4958391;28;20655;-86
2022/04/09 10:57:07;;;;;;;7.18;2.40;;;9.50;99.90;;;;;;4953469;28;20110;-87
2022/04/09 10:59:34;;;;;;;3.33;2.03;;;9.50;99.90;;;;;;4958005;28;20023;-86
2022/04/09 11:02:00;;;;;;;7.47;2.45;;;9.40;99.90;;;;;;4957583;28;20058;-86
2022/04/09 11:04:32;;;;;;;7.40;2.40;;;9.60;99.90;;;;;;4958679;28;20054;-87
2022/04/09 11:07:05;;;;;;;3.47;2.20;;;9.60;99.90;;;;;;4960833;28;20067;-87
2022/04/09 11:09:49;;;;;;;4.45;2.13;;;9.70;99.90;;;;;;4960312;28;20062;-87
2022/04/09 11:12:35;;;;;;;7.18;1.92;;;10.00;99.90;;;;;;4947726;28;20051;-87
2022/04/09 11:15:09;;;;;;;6.20;2.30;;;10.20;99.90;;;;;;4974490;28;20406;-87
2022/04/09 11:17:39;;;;;;;8.50;2.45;;;10.50;99.90;;;;;;4958725;28;20045;-86
2022/04/09 11:20:07;;;;;;;9.75;2.38;;;10.40;99.90;;;;;;4957596;28;20023;-87
2022/04/09 11:22:35;;;;;;;8.30;2.28;;;10.50;99.90;;;;;;4954368;29;20031;-86
2022/04/09 11:25:02;;;;;;;5.82;1.70;;;10.70;99.90;;;;;;4966980;28;20034;-86
2022/04/09 11:27:28;;;;;;;6.18;2.65;;;11.00;99.90;;;;;;4972711;28;20047;-86
2022/04/09 11:29:55;;;;;;;5.13;1.77;;;11.30;99.90;;;;;;4951986;28;20508;-87
2022/04/09 11:32:22;;;;;;;6.90;1.92;;;11.10;99.90;;;;;;4960141;28;20027;-87
2022/04/09 11:34:59;;;;;;;9.55;2.17;;;10.90;99.90;;;;;;4960352;28;20058;-86
2022/04/09 11:37:29;;;;;;;3.95;1.60;;;10.60;99.90;;;;;;4954893;29;20146;-86
2022/04/09 11:39:56;;;;;;;2.00;1.23;;;10.40;99.90;;;;;;4949762;28;20086;-87
2022/04/09 11:42:22;;;;;;;4.68;1.83;;;10.10;99.90;;;;;;4961078;28;20054;-86
2022/04/09 11:44:47;;;;;;;13.48;4.75;;;10.00;99.90;;;;;;4950547;29;20027;-87
2022/04/09 11:47:23;;;;;;;5.80;1.85;;;9.80;99.90;;;;;;4977941;28;20030;-87
2022/04/09 11:49:49;;;;;;;5.18;1.77;;;9.60;99.90;;;;;;4961381;28;20605;-87
2022/04/09 11:52:29;;;;;;;6.90;1.73;;;9.60;99.90;;;;;;4977946;28;20031;-87
2022/04/09 11:54:56;;;;;;;5.28;1.92;;;9.80;99.90;;;;;;4963728;28;20055;-87
2022/04/09 11:57:22;;;;;;;5.75;1.73;;;9.90;99.90;;;;;;4964195;28;20026;-86
2022/04/09 11:59:53;;;;;;;5.05;1.80;;;10.10;99.90;;;;;;4963318;28;20436;-87
2022/04/09 12:02:21;;;;;;;6.05;2.05;;;10.30;99.90;;;;;;4964372;28;20029;-86
2022/04/09 12:04:47;;;;;;;7.35;1.67;;;10.60;99.90;;;;;;4963183;28;20117;-86
2022/04/09 12:07:13;;;;;;;4.38;1.73;;;10.80;99.90;;;;;;4963294;28;20062;-87
2022/04/09 12:09:39;;;;;;;5.00;1.50;;;10.80;99.90;;;;;;4962695;28;20035;-87
2022/04/09 12:12:05;;;;;;;5.85;1.63;;;10.90;99.90;;;;;;4962924;28;20062;-86
2022/04/09 12:14:31;;;;;;;5.95;1.80;;;11.00;99.90;;;;;;4962492;28;20031;-86
2022/04/09 12:16:56;;;;;;;3.55;1.40;;;10.90;99.90;;;;;;4957837;28;20027;-87
2022/04/09 12:19:30;;;;;;;4.80;1.60;;;10.90;99.90;;;;;;4960572;28;20027;-86
2022/04/09 12:22:09;;;;;;;4.03;1.63;;;10.70;99.90;;;;;;4953213;28;20046;-87
2022/04/09 12:24:55;;;;;;;4.78;2.10;;;10.50;99.90;;;;;;4946744;29;20034;-87
2022/04/09 12:27:41;;;;;;;6.18;1.55;;;10.50;99.90;;;;;;4974371;28;20469;-87
2022/04/09 12:30:07;;;;;;;4.00;1.67;;;10.40;99.90;;;;;;4963222;28;20030;-87
2022/04/09 12:32:33;;;;;;;8.27;1.70;;;10.60;99.90;;;;;;4962400;28;20088;-86
2022/04/09 12:35:03;;;;;;;4.50;1.70;;;10.80;99.90;;;;;;4978475;28;20031;-85
2022/04/09 12:37:29;;;;;;;10.90;1.77;;;11.00;99.90;;;;;;4979255;28;20058;-86
2022/04/09 12:40:22;;;;;;;8.10;1.85;;;11.10;99.90;;;;;;4961921;28;20046;-86
2022/04/09 12:42:48;;;;;;;5.88;1.48;;;11.30;99.90;;;;;;4979358;28;20045;-86
2022/04/09 12:45:16;;;;;;;6.25;1.55;;;11.50;99.90;;;;;;4959375;28;20046;-87
2022/04/09 12:47:51;;;;;;;5.45;1.60;;;11.60;99.90;;;;;;4961500;28;20091;-86
2022/04/09 12:50:27;;;;;;;7.22;1.88;;;11.60;99.90;;;;;;4979346;28;20018;-86
2022/04/09 12:52:54;;;;;;;18.75;7.95;;;11.50;99.90;;;;;;4979524;28;20065;-87
2022/04/09 12:55:22;;;;;;;5.90;2.40;;;11.30;99.90;;;;;;4978594;28;20098;-87
2022/04/09 12:57:48;;;;;;;3.95;2.00;;;11.10;99.90;;;;;;4957961;29;20031;-86
2022/04/09 13:00:15;;;;;;;5.32;1.80;;;11.10;99.90;;;;;;4960494;28;20026;-86